Time;durP1;ratioP1;P1;durP2;ratioP2;P2;SDS_P1;SDS_P2;PMS_P1;PMS_P2;Temp;Humidity;BMP_temperature;BMP_pressure;BME280_temperature;BME280_humidity;BME280_pressure;Samples;Min_cycle;Max_cycle;Signal;HPM_P1;HPM_P2
2021/12/24 00:00:45;;;;;;;25.05;18.85;;;5.90;99.90;;;;;;5048752;28;20224;-74
2021/12/24 00:03:14;;;;;;;27.85;19.65;;;5.90;99.90;;;;;;5047839;28;20252;-75
2021/12/24 00:05:42;;;;;;;36.42;19.15;;;5.90;99.90;;;;;;5047030;28;20193;-74
2021/12/24 00:08:46;;;;;;;32.15;21.15;;;5.80;99.90;;;;;;5047933;28;20260;-76
2021/12/24 00:11:15;;;;;;;27.13;18.85;;;5.90;99.90;;;;;;5049399;28;20270;-75
2021/12/24 00:13:45;;;;;;;27.67;19.35;;;5.90;99.90;;;;;;5048906;28;20240;-75
2021/12/24 00:16:19;;;;;;;28.88;19.23;;;5.80;99.90;;;;;;5048876;28;20190;-74
2021/12/24 00:18:53;;;;;;;22.30;16.98;;;5.90;99.90;;;;;;5046062;28;20188;-74
2021/12/24 00:35:16;;;;;;;25.48;18.35;;;6.10;99.90;;;;;;5028776;28;20444;-74
2021/12/24 00:37:45;;;;;;;24.65;17.98;;;6.10;99.90;;;;;;5046100;28;20186;-74
2021/12/24 00:40:18;;;;;;;30.45;18.55;;;6.20;99.90;;;;;;5047490;28;20387;-74
2021/12/24 00:42:46;;;;;;;32.05;19.35;;;6.20;99.90;;;;;;5047535;28;20402;-74
2021/12/24 00:45:15;;;;;;;27.60;17.95;;;6.10;99.90;;;;;;5046890;28;20193;-74
2021/12/24 00:47:43;;;;;;;26.13;17.77;;;6.20;99.90;;;;;;5047552;28;20206;-75
2021/12/24 00:50:16;;;;;;;34.33;19.88;;;6.20;99.90;;;;;;5038438;28;20300;-75
2021/12/24 00:52:48;;;;;;;35.08;20.90;;;6.20;99.90;;;;;;5028462;28;20370;-75
2021/12/24 00:55:19;;;;;;;24.00;17.58;;;6.30;99.90;;;;;;5042365;28;20306;-74
2021/12/24 00:57:49;;;;;;;30.55;18.92;;;6.30;99.90;;;;;;5048462;28;20204;-74
2021/12/24 01:00:19;;;;;;;34.40;20.10;;;6.30;99.90;;;;;;5047581;28;20436;-74
2021/12/24 01:02:47;;;;;;;27.15;19.30;;;6.30;99.90;;;;;;5048484;28;20202;-74
2021/12/24 01:05:16;;;;;;;22.98;17.77;;;6.30;99.90;;;;;;5047631;28;20186;-75
2021/12/24 01:07:45;;;;;;;29.67;20.35;;;6.30;99.90;;;;;;5047692;28;20227;-75
2021/12/24 01:10:17;;;;;;;30.25;17.88;;;6.30;99.90;;;;;;5047080;28;20294;-75
2021/12/24 01:12:44;;;;;;;28.77;20.80;;;6.30;99.90;;;;;;5042021;28;20205;-74
2021/12/24 01:15:17;;;;;;;27.02;18.75;;;6.40;99.90;;;;;;5047148;28;20282;-74
2021/12/24 01:17:51;;;;;;;24.48;17.95;;;6.40;99.90;;;;;;5048132;28;20191;-75
2021/12/24 01:20:27;;;;;;;26.20;17.25;;;6.40;99.90;;;;;;5046536;28;20285;-72
2021/12/24 01:25:42;;;;;;;24.73;17.33;;;6.50;99.90;;;;;;5046172;28;20412;-75
2021/12/24 01:39:18;;;;;;;26.13;19.25;;;6.40;99.90;;;;;;5043315;28;20218;-74
2021/12/24 01:44:31;;;;;;;28.17;17.95;;;6.60;99.90;;;;;;5040403;28;20195;-74
2021/12/24 01:46:59;;;;;;;21.55;15.00;;;6.60;99.90;;;;;;5042356;28;20197;-74
2021/12/24 01:49:27;;;;;;;24.67;17.38;;;6.70;99.90;;;;;;5046339;28;20230;-74
2021/12/24 01:51:57;;;;;;;26.40;17.90;;;6.70;99.90;;;;;;5046936;28;20254;-74
2021/12/24 01:54:24;;;;;;;27.27;17.55;;;6.60;99.90;;;;;;5046954;28;20212;-75
2021/12/24 01:56:51;;;;;;;24.10;16.40;;;6.70;99.90;;;;;;5046879;28;20241;-75
2021/12/24 01:59:18;;;;;;;29.15;17.00;;;6.60;99.90;;;;;;5046380;28;20285;-74
2021/12/24 02:01:45;;;;;;;21.27;15.88;;;6.50;99.90;;;;;;5046545;28;20275;-74
2021/12/24 02:04:13;;;;;;;28.67;17.13;;;6.60;99.90;;;;;;5046786;28;20385;-74
2021/12/24 02:06:42;;;;;;;29.98;19.45;;;6.60;99.90;;;;;;5039917;28;20211;-74
2021/12/24 02:09:11;;;;;;;22.13;15.70;;;6.60;99.90;;;;;;5046763;28;20191;-75
2021/12/24 02:11:40;;;;;;;25.70;17.55;;;6.60;99.90;;;;;;5045795;28;20232;-75
2021/12/24 02:14:08;;;;;;;25.52;16.95;;;6.60;99.90;;;;;;5039467;28;20223;-74
2021/12/24 02:16:48;;;;;;;24.75;16.48;;;6.60;99.90;;;;;;5046735;28;20425;-73
2021/12/24 02:30:35;;;;;;;26.77;17.17;;;6.60;99.90;;;;;;5045545;28;20487;-74
2021/12/24 02:33:02;;;;;;;26.25;16.38;;;6.60;99.90;;;;;;5045925;28;20185;-74
2021/12/24 02:35:30;;;;;;;24.77;17.52;;;6.60;99.90;;;;;;5044691;28;20310;-74
2021/12/24 02:37:59;;;;;;;26.15;18.58;;;6.60;99.90;;;;;;5038626;28;20316;-74
2021/12/24 02:40:26;;;;;;;29.98;20.65;;;6.60;99.90;;;;;;5043939;28;20221;-74
2021/12/24 02:42:54;;;;;;;27.77;19.80;;;6.70;99.90;;;;;;5046657;28;20218;-75
2021/12/24 02:45:21;;;;;;;21.55;18.20;;;6.70;99.90;;;;;;5045776;28;20394;-74
2021/12/24 02:48:11;;;;;;;25.15;18.35;;;6.70;99.90;;;;;;5039683;28;20209;-75
2021/12/24 02:56:13;;;;;;;31.42;21.05;;;6.70;99.90;;;;;;5045894;28;20211;-74
2021/12/24 02:58:43;;;;;;;27.55;19.08;;;6.70;99.90;;;;;;5046207;28;20210;-74
2021/12/24 03:01:12;;;;;;;28.15;19.58;;;6.80;99.90;;;;;;5045168;28;20282;-75
2021/12/24 03:03:39;;;;;;;22.20;17.73;;;6.80;99.90;;;;;;5045961;28;20215;-74
2021/12/24 03:06:07;;;;;;;24.15;17.92;;;6.80;99.90;;;;;;5043077;28;20242;-74
2021/12/24 03:08:35;;;;;;;20.38;17.00;;;6.80;99.90;;;;;;5044486;28;20226;-74
2021/12/24 03:11:02;;;;;;;24.85;18.75;;;6.80;99.90;;;;;;5045158;28;20238;-75
2021/12/24 03:13:30;;;;;;;27.20;17.20;;;6.80;99.90;;;;;;5046008;28;20200;-74
2021/12/24 03:15:59;;;;;;;25.85;16.95;;;6.80;99.90;;;;;;5044544;28;20249;-75
2021/12/24 03:18:29;;;;;;;21.95;14.27;;;6.80;99.90;;;;;;5045681;28;20260;-74
2021/12/24 03:21:04;;;;;;;26.42;18.00;;;6.80;99.90;;;;;;5043563;28;20226;-74
2021/12/24 03:23:38;;;;;;;26.50;18.50;;;6.80;99.90;;;;;;5044228;28;20206;-75
2021/12/24 03:26:09;;;;;;;26.27;17.45;;;6.80;99.90;;;;;;5044740;28;20382;-74
2021/12/24 03:28:36;;;;;;;28.02;16.52;;;6.80;99.90;;;;;;5039265;28;20199;-74
2021/12/24 03:31:04;;;;;;;26.05;16.33;;;6.90;99.90;;;;;;5043226;28;20210;-76
2021/12/24 03:33:33;;;;;;;25.88;17.38;;;6.80;99.90;;;;;;5045998;28;20250;-74
2021/12/24 03:36:00;;;;;;;22.05;17.10;;;6.80;99.90;;;;;;5045499;28;20282;-74
2021/12/24 03:38:28;;;;;;;24.75;17.38;;;6.90;99.90;;;;;;5045390;28;20397;-74
2021/12/24 03:40:54;;;;;;;28.13;19.23;;;6.90;99.90;;;;;;5038671;28;20231;-75
2021/12/24 03:43:23;;;;;;;31.35;18.67;;;6.90;99.90;;;;;;5040877;28;20260;-75
2021/12/24 03:45:59;;;;;;;22.75;15.15;;;6.90;99.90;;;;;;5045477;28;20195;-75
2021/12/24 03:48:38;;;;;;;26.90;18.35;;;7.00;99.90;;;;;;5044610;28;20190;-74
2021/12/24 03:51:21;;;;;;;21.35;17.23;;;7.00;99.90;;;;;;5044966;28;20242;-74
2021/12/24 03:56:34;;;;;;;25.58;18.67;;;7.10;99.90;;;;;;5045381;28;20260;-75
2021/12/24 03:59:05;;;;;;;26.13;17.50;;;7.20;99.90;;;;;;5045441;28;20200;-74
2021/12/24 04:01:32;;;;;;;24.60;17.70;;;7.10;99.90;;;;;;5036965;28;20446;-74
2021/12/24 04:03:59;;;;;;;22.50;16.45;;;7.20;99.90;;;;;;5045720;28;20255;-74
2021/12/24 04:06:26;;;;;;;22.92;15.75;;;7.10;99.90;;;;;;5045286;28;20258;-74
2021/12/24 04:08:53;;;;;;;22.35;14.68;;;7.20;99.90;;;;;;5039104;28;20262;-74
2021/12/24 04:11:20;;;;;;;23.95;16.30;;;7.20;99.90;;;;;;5044495;28;20219;-73
2021/12/24 04:13:48;;;;;;;23.00;17.60;;;7.30;99.90;;;;;;5044921;28;20199;-73
2021/12/24 04:16:16;;;;;;;22.00;15.88;;;7.30;99.90;;;;;;5040031;28;20290;-72
2021/12/24 04:18:50;;;;;;;21.00;15.13;;;7.40;99.90;;;;;;5029239;28;20353;-72
2021/12/24 04:26:45;;;;;;;19.60;13.95;;;7.40;99.90;;;;;;5048722;28;20245;-72
2021/12/24 04:29:12;;;;;;;17.15;12.15;;;7.40;99.90;;;;;;5047373;28;20216;-72
2021/12/24 04:31:44;;;;;;;15.70;11.60;;;7.40;99.90;;;;;;5047798;28;20488;-72
2021/12/24 04:34:13;;;;;;;18.05;13.95;;;7.40;99.90;;;;;;5048146;28;20261;-72
2021/12/24 04:36:58;;;;;;;16.20;12.60;;;7.40;99.90;;;;;;5048284;28;20191;-73
2021/12/24 04:39:42;;;;;;;17.45;12.27;;;7.40;99.90;;;;;;5047164;28;20250;-72
2021/12/24 05:01:41;;;;;;;16.73;11.65;;;7.50;99.90;;;;;;5046529;28;20317;-73
2021/12/24 05:04:11;;;;;;;17.67;11.70;;;7.60;99.90;;;;;;5047191;28;20237;-73
2021/12/24 05:06:47;;;;;;;13.30;10.40;;;7.60;99.90;;;;;;5048262;28;20191;-73
2021/12/24 05:09:20;;;;;;;15.00;10.20;;;7.60;99.90;;;;;;5047627;28;20196;-73
2021/12/24 05:11:47;;;;;;;14.88;11.15;;;7.70;99.90;;;;;;5047068;28;20526;-73
2021/12/24 05:14:15;;;;;;;11.93;10.00;;;7.70;99.90;;;;;;5048128;28;20222;-73
2021/12/24 05:16:46;;;;;;;14.63;10.52;;;7.70;99.90;;;;;;5039877;28;20208;-73
2021/12/24 05:22:07;;;;;;;14.93;11.43;;;7.70;99.90;;;;;;5019149;28;20237;-72
2021/12/24 05:24:34;;;;;;;16.58;10.98;;;7.60;99.90;;;;;;5047330;28;20234;-73
2021/12/24 05:27:03;;;;;;;13.52;10.40;;;7.60;99.90;;;;;;5047573;28;20223;-73
2021/12/24 05:29:31;;;;;;;15.13;10.75;;;7.60;99.90;;;;;;5046671;28;20231;-74
2021/12/24 05:31:57;;;;;;;12.95;9.63;;;7.70;99.90;;;;;;5046016;28;20467;-73
2021/12/24 05:34:26;;;;;;;13.25;11.00;;;7.70;99.90;;;;;;5046884;28;20218;-74
2021/12/24 05:36:53;;;;;;;15.50;10.35;;;7.70;99.90;;;;;;5047384;28;20184;-74
2021/12/24 05:39:22;;;;;;;13.35;10.88;;;7.70;99.90;;;;;;5046899;28;20216;-74
2021/12/24 05:41:50;;;;;;;12.65;9.05;;;7.80;99.90;;;;;;5046586;28;20246;-73
2021/12/24 05:44:17;;;;;;;12.60;9.82;;;7.80;99.90;;;;;;5047224;28;20204;-74
2021/12/24 05:46:45;;;;;;;11.68;9.13;;;7.80;99.90;;;;;;5046491;28;20188;-73
2021/12/24 05:49:12;;;;;;;12.30;9.68;;;7.80;99.90;;;;;;5043194;28;20195;-73
2021/12/24 05:51:41;;;;;;;11.70;8.95;;;7.90;99.90;;;;;;5046028;28;20207;-73
2021/12/24 05:54:09;;;;;;;13.70;10.27;;;7.90;99.90;;;;;;5046533;28;20259;-73
2021/12/24 05:56:36;;;;;;;13.73;9.60;;;7.90;99.90;;;;;;5043590;28;20243;-73
2021/12/24 05:59:04;;;;;;;12.40;9.35;;;8.00;99.90;;;;;;5041642;28;20321;-73
2021/12/24 06:01:31;;;;;;;11.45;9.48;;;8.00;99.90;;;;;;5046143;28;20279;-73
2021/12/24 06:03:58;;;;;;;11.10;8.70;;;8.00;99.90;;;;;;5045790;28;20197;-73
2021/12/24 06:06:24;;;;;;;13.27;9.90;;;8.00;99.90;;;;;;5046499;28;20192;-73
2021/12/24 06:08:53;;;;;;;10.80;9.25;;;8.00;99.90;;;;;;5046499;28;20192;-73
2021/12/24 06:11:20;;;;;;;12.88;9.48;;;8.00;99.90;;;;;;5046158;28;20284;-73
2021/12/24 06:13:51;;;;;;;8.55;7.32;;;8.00;99.90;;;;;;5046414;28;20297;-72
2021/12/24 06:16:19;;;;;;;9.70;8.30;;;8.00;99.90;;;;;;5046666;28;20231;-75
2021/12/24 06:18:46;;;;;;;8.10;6.93;;;8.00;99.90;;;;;;5046748;28;20208;-73
2021/12/24 06:21:12;;;;;;;8.88;6.70;;;8.10;99.90;;;;;;5045506;28;20239;-73
2021/12/24 06:23:40;;;;;;;7.10;5.70;;;8.10;99.90;;;;;;5046138;28;20187;-73
2021/12/24 06:26:10;;;;;;;8.70;6.90;;;8.10;99.90;;;;;;5045581;28;20207;-74
2021/12/24 06:28:37;;;;;;;10.27;8.18;;;8.10;99.90;;;;;;5045818;28;20200;-74
2021/12/24 06:31:06;;;;;;;8.00;6.22;;;8.10;99.90;;;;;;5045740;28;20239;-75
2021/12/24 06:33:34;;;;;;;7.30;5.50;;;8.10;99.90;;;;;;5045960;28;20237;-74
2021/12/24 06:36:01;;;;;;;8.00;5.90;;;8.10;99.90;;;;;;5045885;28;20247;-74
2021/12/24 06:38:29;;;;;;;5.97;5.40;;;8.10;99.90;;;;;;5044341;28;20286;-74
2021/12/24 06:40:56;;;;;;;6.13;5.03;;;8.20;99.90;;;;;;5037522;28;20215;-74
2021/12/24 06:43:25;;;;;;;7.20;6.20;;;8.30;99.90;;;;;;5045608;28;20234;-74
2021/12/24 06:45:53;;;;;;;6.90;4.85;;;8.30;99.90;;;;;;5046004;28;20211;-74
2021/12/24 06:48:20;;;;;;;6.25;4.82;;;8.30;99.90;;;;;;5045469;28;20208;-74
2021/12/24 06:50:47;;;;;;;5.47;4.50;;;8.20;99.90;;;;;;5044974;28;20242;-74
2021/12/24 06:53:14;;;;;;;6.80;5.22;;;8.30;99.90;;;;;;5044931;28;20265;-74
2021/12/24 06:55:41;;;;;;;6.22;5.15;;;8.20;99.90;;;;;;5036477;28;20244;-74
2021/12/24 06:58:09;;;;;;;5.25;4.75;;;8.30;99.90;;;;;;5045726;28;20376;-74
2021/12/24 07:00:37;;;;;;;6.18;5.32;;;8.20;99.90;;;;;;5045052;28;20460;-74
2021/12/24 07:03:04;;;;;;;4.95;4.45;;;8.20;99.90;;;;;;5045760;28;20204;-74
2021/12/24 07:05:31;;;;;;;4.75;4.28;;;8.10;99.90;;;;;;5044217;28;20219;-74
2021/12/24 07:07:58;;;;;;;6.15;4.40;;;8.10;99.90;;;;;;5039492;28;20227;-74
2021/12/24 07:10:25;;;;;;;4.82;3.85;;;8.10;99.90;;;;;;5044960;28;20243;-75
2021/12/24 07:12:53;;;;;;;4.90;3.90;;;8.10;99.90;;;;;;5046258;28;20192;-76
2021/12/24 07:15:20;;;;;;;3.70;3.30;;;8.10;99.90;;;;;;5045880;28;20350;-78
2021/12/24 07:17:49;;;;;;;3.85;3.45;;;8.10;99.90;;;;;;5045891;28;20224;-76
2021/12/24 07:20:16;;;;;;;5.35;4.53;;;8.10;99.90;;;;;;5039041;28;20212;-75
2021/12/24 07:22:44;;;;;;;7.18;5.60;;;8.10;99.90;;;;;;5039664;28;20204;-76
2021/12/24 07:25:11;;;;;;;6.78;5.40;;;8.10;99.90;;;;;;5045418;28;20196;-75
2021/12/24 07:27:38;;;;;;;6.55;4.70;;;8.10;99.90;;;;;;5038910;28;20235;-75
2021/12/24 07:30:10;;;;;;;9.30;6.18;;;8.10;99.90;;;;;;5044639;28;20216;-74
2021/12/24 07:32:37;;;;;;;11.88;6.55;;;8.10;99.90;;;;;;5040546;28;20203;-75
2021/12/24 07:35:06;;;;;;;8.80;6.15;;;8.10;99.90;;;;;;5045108;28;20204;-74
2021/12/24 07:37:34;;;;;;;6.88;5.32;;;8.10;99.90;;;;;;5044538;28;20237;-74
2021/12/24 07:40:03;;;;;;;8.60;6.15;;;8.10;99.90;;;;;;5044708;28;20208;-74
2021/12/24 07:42:30;;;;;;;6.80;5.75;;;8.00;99.90;;;;;;5044410;28;20387;-74
2021/12/24 07:44:57;;;;;;;6.10;5.00;;;8.10;99.90;;;;;;5045053;28;20203;-73
2021/12/24 07:47:31;;;;;;;9.05;4.78;;;8.10;99.90;;;;;;5041129;28;20250;-75
2021/12/24 07:50:03;;;;;;;8.48;6.20;;;8.10;99.90;;;;;;5044545;28;20195;-72
2021/12/24 07:52:32;;;;;;;6.00;4.32;;;8.00;99.90;;;;;;5045618;28;20228;-73
2021/12/24 07:54:59;;;;;;;5.40;4.57;;;8.00;99.90;;;;;;5045479;28;20207;-73
2021/12/24 07:57:26;;;;;;;5.65;4.45;;;8.00;99.90;;;;;;5049111;28;20231;-74
2021/12/24 07:59:53;;;;;;;7.63;4.80;;;8.00;99.90;;;;;;5046133;28;20198;-75
2021/12/24 08:02:25;;;;;;;6.38;4.85;;;7.90;99.90;;;;;;5047948;28;20223;-74
2021/12/24 08:04:53;;;;;;;4.35;3.95;;;7.90;99.90;;;;;;5046150;28;20184;-74
2021/12/24 08:07:21;;;;;;;4.43;4.03;;;7.90;99.90;;;;;;5049009;28;20413;-74
2021/12/24 08:09:51;;;;;;;4.00;3.33;;;7.90;99.90;;;;;;5041107;28;20207;-76
2021/12/24 08:12:20;;;;;;;3.53;3.22;;;7.90;99.90;;;;;;5033830;28;20204;-76
2021/12/24 08:14:47;;;;;;;3.50;2.55;;;7.90;99.90;;;;;;5040575;28;20188;-80
2021/12/24 08:17:16;;;;;;;5.22;2.60;;;7.80;99.90;;;;;;5034923;28;20447;-72
2021/12/24 08:19:43;;;;;;;3.45;2.95;;;7.70;99.90;;;;;;5040192;28;20365;-75
2021/12/24 08:22:11;;;;;;;3.85;2.17;;;7.60;99.90;;;;;;5047862;28;20381;-79
2021/12/24 08:24:39;;;;;;;6.95;2.65;;;7.60;99.90;;;;;;5045722;28;20206;-75
2021/12/24 08:27:09;;;;;;;3.10;2.67;;;7.50;99.90;;;;;;5035980;28;20191;-74
2021/12/24 08:29:36;;;;;;;3.50;2.70;;;7.50;99.90;;;;;;5033543;28;20192;-74
2021/12/24 08:32:04;;;;;;;3.97;3.40;;;7.40;99.90;;;;;;5047700;28;20394;-73
2021/12/24 08:34:32;;;;;;;4.82;3.20;;;7.40;99.90;;;;;;5046909;28;20236;-73
2021/12/24 08:36:59;;;;;;;4.25;3.60;;;7.40;99.90;;;;;;5047641;28;20250;-74
2021/12/24 08:39:26;;;;;;;5.35;3.22;;;7.30;99.90;;;;;;5047178;28;20197;-73
2021/12/24 08:41:55;;;;;;;4.20;3.42;;;7.30;99.90;;;;;;5039563;28;20265;-75
2021/12/24 08:44:25;;;;;;;5.18;3.70;;;7.30;99.90;;;;;;5041074;28;20199;-74
2021/12/24 08:46:54;;;;;;;3.83;3.40;;;7.30;99.90;;;;;;5047184;28;20208;-74
2021/12/24 08:49:23;;;;;;;4.20;3.65;;;7.40;99.90;;;;;;5047357;28;20222;-76
2021/12/24 08:51:50;;;;;;;3.00;2.70;;;7.40;99.90;;;;;;5045713;28;20317;-74
2021/12/24 08:54:17;;;;;;;4.00;3.60;;;7.40;99.90;;;;;;5048181;28;20366;-74
2021/12/24 08:56:44;;;;;;;4.22;3.40;;;7.40;99.90;;;;;;5047831;28;20286;-74
2021/12/24 08:59:11;;;;;;;4.00;3.00;;;7.30;99.90;;;;;;5048125;28;20297;-74
2021/12/24 09:01:42;;;;;;;3.95;3.55;;;7.40;99.90;;;;;;5047111;28;20251;-74
2021/12/24 09:04:10;;;;;;;4.45;3.35;;;7.30;99.90;;;;;;5048192;28;20287;-70
2021/12/24 09:06:37;;;;;;;4.32;2.72;;;7.30;99.90;;;;;;5046429;28;20434;-74
2021/12/24 09:09:06;;;;;;;3.83;3.28;;;7.20;99.90;;;;;;5047507;28;20230;-75
2021/12/24 09:11:33;;;;;;;3.75;3.45;;;7.20;99.90;;;;;;5046388;28;20235;-74
2021/12/24 09:14:00;;;;;;;5.70;4.05;;;7.20;99.90;;;;;;5047461;28;20356;-75
2021/12/24 09:16:27;;;;;;;6.18;4.60;;;7.10;99.90;;;;;;5047252;28;20226;-75
2021/12/24 09:19:01;;;;;;;5.40;3.83;;;7.00;99.90;;;;;;5047430;28;20195;-75
2021/12/24 09:21:28;;;;;;;5.63;4.78;;;7.00;99.90;;;;;;5046892;28;20230;-74
2021/12/24 09:23:58;;;;;;;5.88;4.85;;;7.00;99.90;;;;;;5047493;28;20220;-74
2021/12/24 09:26:28;;;;;;;6.25;5.68;;;7.00;99.90;;;;;;5045499;28;20195;-77
2021/12/24 09:28:56;;;;;;;5.82;5.22;;;7.00;99.90;;;;;;5047440;28;20184;-76
2021/12/24 09:31:23;;;;;;;6.28;5.30;;;6.90;99.90;;;;;;5046458;28;20385;-76
2021/12/24 09:33:51;;;;;;;8.10;6.35;;;6.90;99.90;;;;;;5045658;28;20254;-72
2021/12/24 09:36:24;;;;;;;6.47;5.18;;;6.90;99.90;;;;;;5043904;28;20369;-74
2021/12/24 09:38:51;;;;;;;5.60;5.05;;;6.90;99.90;;;;;;5045816;28;20219;-74
2021/12/24 09:41:19;;;;;;;6.57;5.35;;;6.90;99.90;;;;;;5046391;28;20219;-76
2021/12/24 09:43:46;;;;;;;4.78;4.25;;;6.80;99.90;;;;;;5045782;28;20207;-77
2021/12/24 09:46:14;;;;;;;5.57;4.43;;;6.80;99.90;;;;;;5046987;28;20241;-77
2021/12/24 09:48:43;;;;;;;6.63;5.15;;;6.80;99.90;;;;;;5047001;28;20452;-77
2021/12/24 09:51:11;;;;;;;6.13;4.88;;;6.70;99.90;;;;;;5041274;28;20217;-77
2021/12/24 09:53:39;;;;;;;6.10;3.70;;;6.70;99.90;;;;;;5046632;28;20402;-77
2021/12/24 09:56:07;;;;;;;4.55;3.15;;;6.70;99.90;;;;;;5046547;28;20222;-78
2021/12/24 09:58:34;;;;;;;3.63;3.28;;;6.70;99.90;;;;;;5046220;28;20186;-75
2021/12/24 10:01:01;;;;;;;5.55;3.67;;;6.60;99.90;;;;;;5045746;28;20246;-75
2021/12/24 10:03:31;;;;;;;3.30;2.97;;;6.60;99.90;;;;;;5046931;28;20226;-77
2021/12/24 10:05:58;;;;;;;3.83;2.90;;;6.60;99.90;;;;;;5046940;28;20224;-75
2021/12/24 10:08:26;;;;;;;5.15;3.65;;;6.50;99.90;;;;;;5045981;28;20199;-77
2021/12/24 10:11:02;;;;;;;4.80;3.30;;;6.50;99.90;;;;;;5043324;28;20214;-79
2021/12/24 10:13:42;;;;;;;8.35;4.38;;;6.60;99.90;;;;;;5046494;28;20199;-76
2021/12/24 10:16:12;;;;;;;4.70;3.05;;;6.60;99.90;;;;;;5045929;28;20235;-76
2021/12/24 10:18:42;;;;;;;2.90;2.53;;;6.50;99.90;;;;;;5045083;28;20206;-75
2021/12/24 10:21:12;;;;;;;2.75;2.15;;;6.40;99.90;;;;;;5040474;28;20265;-76
2021/12/24 10:23:45;;;;;;;3.88;2.40;;;6.40;99.90;;;;;;5045111;28;20284;-75
2021/12/24 10:26:17;;;;;;;2.97;1.75;;;6.30;99.90;;;;;;5045603;28;20256;-74
2021/12/24 10:28:54;;;;;;;2.85;2.45;;;6.30;99.90;;;;;;5043633;28;20189;-74
2021/12/24 10:31:24;;;;;;;3.30;2.53;;;6.20;99.90;;;;;;5041385;28;20280;-75
2021/12/24 10:34:14;;;;;;;2.47;2.10;;;6.10;99.90;;;;;;5039177;28;20188;-75
2021/12/24 10:37:06;;;;;;;3.90;3.08;;;6.00;99.90;;;;;;5037915;28;20246;-76
2021/12/24 10:39:37;;;;;;;2.53;2.30;;;6.00;99.90;;;;;;5037947;28;20275;-75
2021/12/24 10:42:08;;;;;;;4.50;3.13;;;5.90;99.90;;;;;;5042406;28;20209;-75
2021/12/24 10:44:37;;;;;;;5.45;3.38;;;5.90;99.90;;;;;;5045101;28;20216;-75
2021/12/24 10:47:08;;;;;;;3.35;2.90;;;5.90;99.90;;;;;;5045718;28;20217;-75
2021/12/24 10:52:31;;;;;;;4.68;3.70;;;5.80;99.90;;;;;;5040086;28;20190;-75
2021/12/24 10:55:01;;;;;;;4.97;3.38;;;5.80;99.90;;;;;;5044160;28;20272;-75
2021/12/24 10:57:31;;;;;;;3.70;3.30;;;5.80;99.90;;;;;;5045652;28;20235;-75
2021/12/24 11:00:00;;;;;;;4.60;3.70;;;5.70;99.90;;;;;;5043504;28;20192;-75
2021/12/24 11:02:33;;;;;;;4.43;3.50;;;5.80;99.90;;;;;;5045431;28;20264;-74
2021/12/24 11:05:01;;;;;;;4.70;4.30;;;5.80;99.90;;;;;;5045535;28;20239;-75
2021/12/24 11:07:33;;;;;;;4.60;2.90;;;5.80;99.90;;;;;;5034165;28;20188;-75
2021/12/24 11:10:12;;;;;;;4.40;4.00;;;5.80;99.90;;;;;;5044281;28;20224;-76
2021/12/24 11:12:43;;;;;;;5.03;3.40;;;5.80;99.90;;;;;;5043658;28;20193;-76
2021/12/24 11:15:30;;;;;;;4.32;3.33;;;5.80;99.90;;;;;;5043963;28;20201;-76
2021/12/24 11:17:59;;;;;;;3.42;3.03;;;5.90;99.90;;;;;;5039481;28;20307;-75
2021/12/24 11:20:28;;;;;;;3.45;2.97;;;5.90;99.90;;;;;;5041287;28;20244;-76
2021/12/24 11:23:01;;;;;;;5.20;3.85;;;5.90;99.90;;;;;;5043856;28;20201;-76
2021/12/24 11:25:30;;;;;;;3.70;3.25;;;5.80;99.90;;;;;;5043759;28;20349;-76
2021/12/24 11:27:59;;;;;;;8.38;5.43;;;5.80;99.90;;;;;;5043677;28;20199;-76
2021/12/24 11:30:28;;;;;;;5.05;3.78;;;5.80;99.90;;;;;;5041522;28;20242;-76
2021/12/24 11:32:56;;;;;;;5.32;3.78;;;5.80;99.90;;;;;;5034385;28;20222;-76
2021/12/24 11:35:24;;;;;;;3.28;2.97;;;5.80;99.90;;;;;;5040192;28;20200;-76
2021/12/24 11:37:53;;;;;;;3.33;3.03;;;5.80;99.90;;;;;;5036931;28;20259;-75
2021/12/24 11:40:21;;;;;;;4.70;3.38;;;5.80;99.90;;;;;;5036028;28;20209;-74
2021/12/24 11:42:54;;;;;;;4.47;3.90;;;5.80;99.90;;;;;;5037567;28;20390;-75
2021/12/24 11:45:26;;;;;;;4.63;3.63;;;5.70;99.90;;;;;;5036592;28;20185;-74
2021/12/24 11:47:54;;;;;;;4.90;3.53;;;5.70;99.90;;;;;;5038948;28;20191;-75
2021/12/24 11:50:23;;;;;;;5.15;2.47;;;5.90;99.90;;;;;;5037685;28;20222;-74
2021/12/24 11:52:54;;;;;;;6.50;3.20;;;5.90;99.90;;;;;;5039240;28;20436;-75
2021/12/24 11:55:23;;;;;;;4.93;3.20;;;6.00;99.90;;;;;;5040258;28;20213;-75
2021/12/24 11:58:00;;;;;;;3.97;2.90;;;6.00;99.90;;;;;;5035649;28;20235;-74
2021/12/24 12:00:31;;;;;;;3.72;2.63;;;5.90;99.90;;;;;;5037880;28;20355;-76
2021/12/24 12:02:59;;;;;;;4.93;3.20;;;5.90;99.90;;;;;;5037974;28;20190;-73
2021/12/24 12:05:32;;;;;;;13.57;5.50;;;5.90;99.90;;;;;;5035178;28;20223;-75
2021/12/24 12:08:40;;;;;;;3.92;3.53;;;5.80;99.90;;;;;;5035627;28;20197;-74
2021/12/24 12:11:18;;;;;;;5.20;3.70;;;5.80;99.90;;;;;;5043562;28;20386;-76
2021/12/24 12:13:49;;;;;;;3.50;3.20;;;5.70;99.90;;;;;;5037005;28;20427;-74
2021/12/24 12:16:19;;;;;;;2.88;2.67;;;5.70;99.90;;;;;;5048629;28;20430;-75
2021/12/24 12:19:00;;;;;;;3.92;3.38;;;5.70;99.90;;;;;;5048874;28;20197;-75
2021/12/24 12:21:37;;;;;;;3.90;3.13;;;5.70;99.90;;;;;;5047106;28;20213;-75
2021/12/24 12:26:50;;;;;;;5.13;3.70;;;5.60;99.90;;;;;;5045414;28;20186;-76
2021/12/24 12:29:23;;;;;;;3.88;3.58;;;5.50;99.90;;;;;;5048517;28;20227;-76
2021/12/24 12:31:55;;;;;;;6.47;4.82;;;5.50;99.90;;;;;;5042934;28;20288;-76
2021/12/24 12:35:05;;;;;;;6.55;5.50;;;5.60;99.90;;;;;;5047429;28;20192;-77
2021/12/24 12:37:42;;;;;;;5.75;4.15;;;5.50;99.90;;;;;;5047897;28;20397;-76
2021/12/24 12:40:31;;;;;;;4.97;4.20;;;5.40;99.90;;;;;;5049477;28;20208;-77
2021/12/24 12:43:13;;;;;;;6.10;5.00;;;5.40;99.90;;;;;;5048294;28;20199;-77
2021/12/24 12:46:02;;;;;;;6.88;5.57;;;5.40;99.90;;;;;;5048545;28;20195;-76
2021/12/24 12:48:49;;;;;;;7.00;6.22;;;5.40;99.90;;;;;;5057959;28;20320;-76
2021/12/24 12:51:19;;;;;;;8.15;5.68;;;5.30;99.90;;;;;;5045586;28;20331;-76
2021/12/24 12:53:50;;;;;;;6.93;5.25;;;5.30;99.90;;;;;;5045184;28;20190;-76
2021/12/24 12:56:21;;;;;;;7.80;6.45;;;5.30;99.90;;;;;;5039514;28;20196;-75
2021/12/24 12:58:49;;;;;;;13.27;7.53;;;5.30;99.90;;;;;;5028775;28;20217;-75
2021/12/24 13:01:18;;;;;;;9.35;7.00;;;5.30;99.90;;;;;;5035017;28;20223;-73
2021/12/24 13:04:14;;;;;;;6.50;5.70;;;5.30;99.90;;;;;;5045119;28;20204;-73
2021/12/24 13:06:55;;;;;;;8.27;6.97;;;5.30;99.90;;;;;;5048262;28;20191;-73
2021/12/24 13:09:27;;;;;;;6.18;5.13;;;5.30;99.90;;;;;;5039370;28;20227;-74
2021/12/24 13:11:56;;;;;;;6.68;5.85;;;5.30;99.90;;;;;;5047828;28;20307;-72
2021/12/24 13:14:25;;;;;;;6.65;5.75;;;5.30;99.90;;;;;;5038079;28;20197;-72
2021/12/24 13:17:06;;;;;;;7.78;6.47;;;5.40;99.90;;;;;;5041124;28;20216;-73
2021/12/24 13:22:29;;;;;;;6.65;5.93;;;5.40;99.90;;;;;;5044051;28;20216;-75
2021/12/24 13:24:59;;;;;;;7.47;5.90;;;5.40;99.90;;;;;;5047129;28;20207;-75
2021/12/24 13:27:28;;;;;;;12.07;7.35;;;5.40;99.90;;;;;;5047108;28;20197;-74
2021/12/24 13:30:11;;;;;;;9.40;6.88;;;5.30;99.90;;;;;;5046288;28;20188;-73
2021/12/24 13:32:39;;;;;;;11.35;7.75;;;5.30;99.90;;;;;;5032322;28;20388;-72
2021/12/24 13:35:08;;;;;;;8.32;7.18;;;5.30;99.90;;;;;;5039110;28;20218;-70
2021/12/24 13:37:37;;;;;;;10.80;7.25;;;5.30;99.90;;;;;;5044069;28;20259;-72
2021/12/24 13:40:09;;;;;;;9.63;7.47;;;5.30;99.90;;;;;;5041125;28;20185;-73
2021/12/24 13:42:48;;;;;;;8.18;6.72;;;5.30;99.90;;;;;;5042258;28;20399;-72
2021/12/24 13:45:16;;;;;;;8.68;6.97;;;5.40;99.90;;;;;;5037868;28;20222;-69
2021/12/24 13:47:58;;;;;;;8.60;7.55;;;5.20;99.90;;;;;;5040808;28;20461;-74
2021/12/24 13:56:22;;;;;;;8.27;7.22;;;5.30;99.90;;;;;;5009473;28;20216;-73
2021/12/24 13:58:52;;;;;;;8.20;7.40;;;5.30;99.90;;;;;;5031730;28;20222;-80
2021/12/24 14:01:24;;;;;;;10.75;8.77;;;5.30;99.90;;;;;;5045630;28;20236;-74
2021/12/24 14:03:51;;;;;;;17.23;9.40;;;5.20;99.90;;;;;;5046189;28;20528;-75
2021/12/24 14:06:19;;;;;;;11.30;9.18;;;5.20;99.90;;;;;;5039007;28;20387;-73
2021/12/24 14:08:47;;;;;;;14.40;9.73;;;5.20;99.90;;;;;;5045762;28;20231;-73
2021/12/24 14:11:19;;;;;;;11.80;9.48;;;5.20;99.90;;;;;;5045365;28;20212;-72
2021/12/24 14:13:52;;;;;;;9.27;8.20;;;5.20;99.90;;;;;;5041804;28;20287;-75
2021/12/24 14:16:36;;;;;;;9.88;8.02;;;5.20;99.90;;;;;;5045580;28;20212;-73
2021/12/24 14:19:13;;;;;;;12.05;9.27;;;5.10;99.90;;;;;;5040859;28;20289;-76
2021/12/24 14:21:45;;;;;;;10.68;9.05;;;5.20;99.90;;;;;;5045122;28;20436;-76
2021/12/24 14:24:15;;;;;;;12.07;9.00;;;5.20;99.90;;;;;;5046527;28;20205;-73
2021/12/24 14:26:46;;;;;;;11.63;8.80;;;5.20;99.90;;;;;;5041960;28;20190;-74
2021/12/24 14:29:24;;;;;;;9.20;7.30;;;5.20;99.90;;;;;;5039463;28;20199;-74
2021/12/24 14:31:53;;;;;;;9.50;8.50;;;5.20;99.90;;;;;;5039870;28;20283;-73
2021/12/24 14:34:51;;;;;;;8.60;7.00;;;5.10;99.90;;;;;;5045684;28;20192;-72
2021/12/24 14:37:24;;;;;;;10.85;9.35;;;5.10;99.90;;;;;;5046211;28;20238;-72